Weather at Yellowknife Airport

Public forecast

Using degrees Celsius for public forecast. Weather courtesy of forecast.io.

Current aviation weather report (METAR) for Yellowknife Airport

Retrieved 2020/10/29 09:18 UTC (33 minutes ago):

CYZF 290918Z 29008KT 15SM -SN BKN040 M10/M12 A2993 RMK SC7 SLP156

Aviation forecast (TAF) for Yellowknife Airport

Retrieved 2020/10/29 06:42 UTC (3 hours ago):

TAF CYZF 290538Z 2906/3006 32010KT P6SM SCT007 OVC040 TEMPO 2906/2915 4SM -SN BKN007 OVC015 FM291500 32008KT P6SM BKN030 TEMPO 2915/3006 BKN020 RMK NXT FCST BY 291200Z